Time;durP1;ratioP1;P1;durP2;ratioP2;P2;SDS_P1;SDS_P2;PMS_P1;PMS_P2;Temp;Humidity;BMP_temperature;BMP_pressure;BME280_temperature;BME280_humidity;BME280_pressure;Samples;Min_cycle;Max_cycle;Signal;HPM_P1;HPM_P2
2022/03/31 00:00:29;;;;;;;23.55;16.60;;;;;;;;;;4991486;28;20491;-77
2022/03/31 00:02:56;;;;;;;20.75;15.27;;;;;;;;;;4992706;28;20207;-78
2022/03/31 00:05:23;;;;;;;18.95;14.88;;;;;;;;;;4993251;28;20204;-78
2022/03/31 00:07:51;;;;;;;20.08;15.32;;;;;;;;;;4992821;28;20231;-75
2022/03/31 00:10:23;;;;;;;19.30;15.38;;;;;;;;;;4993123;28;20702;-77
2022/03/31 00:12:52;;;;;;;20.83;16.50;;;;;;;;;;4992592;28;20981;-77
2022/03/31 00:15:19;;;;;;;20.85;16.00;;;;;;;;;;4988573;28;20658;-77
2022/03/31 00:17:50;;;;;;;21.52;16.30;;;;;;;;;;4991139;28;20220;-78
2022/03/31 00:20:17;;;;;;;19.83;15.90;;;;;;;;;;4992974;28;20223;-78
2022/03/31 00:22:44;;;;;;;21.08;16.38;;;;;;;;;;4992779;28;20557;-79
2022/03/31 00:25:12;;;;;;;20.88;15.90;;;;;;;;;;4992422;28;20531;-76
2022/03/31 00:27:39;;;;;;;21.80;16.90;;;;;;;;;;4993125;28;20323;-78
2022/03/31 00:30:10;;;;;;;19.17;16.55;;;;;;;;;;4991440;28;20197;-77
2022/03/31 00:32:39;;;;;;;22.60;16.95;;;;;;;;;;4988964;28;20188;-76
2022/03/31 00:35:07;;;;;;;17.00;15.20;;;;;;;;;;4989967;28;20209;-79
2022/03/31 00:37:35;;;;;;;22.33;16.45;;;;;;;;;;4992516;28;20231;-79
2022/03/31 00:40:02;;;;;;;19.52;16.60;;;;;;;;;;4991712;28;20197;-77
2022/03/31 00:42:29;;;;;;;20.55;15.70;;;;;;;;;;4991031;28;20736;-80
2022/03/31 00:44:56;;;;;;;24.85;16.13;;;;;;;;;;4992345;28;20197;-77
2022/03/31 00:47:25;;;;;;;24.23;16.45;;;;;;;;;;4986263;28;20333;-76
2022/03/31 00:49:52;;;;;;;20.35;14.75;;;;;;;;;;4990381;28;20232;-78
2022/03/31 00:52:19;;;;;;;22.88;15.77;;;;;;;;;;4991764;28;20219;-78
2022/03/31 00:54:46;;;;;;;20.05;15.98;;;;;;;;;;4992157;28;20201;-78
2022/03/31 00:57:15;;;;;;;19.50;16.60;;;;;;;;;;4992151;28;20226;-79
2022/03/31 00:59:43;;;;;;;18.23;15.57;;;;;;;;;;4992482;28;20192;-79
2022/03/31 01:02:10;;;;;;;18.75;14.73;;;;;;;;;;4992002;28;20197;-77
2022/03/31 01:04:40;;;;;;;20.83;14.57;;;;;;;;;;4994194;28;20539;-77
2022/03/31 01:07:07;;;;;;;20.15;13.75;;;;;;;;;;4993962;28;20213;-77
2022/03/31 01:09:34;;;;;;;17.08;15.27;;;;;;;;;;4991454;28;20745;-78
2022/03/31 01:12:02;;;;;;;20.92;16.58;;;;;;;;;;4989760;28;20201;-77
2022/03/31 01:14:32;;;;;;;21.55;16.17;;;;;;;;;;4990601;28;20200;-77
2022/03/31 01:17:00;;;;;;;18.02;14.95;;;;;;;;;;4991655;28;20201;-76
2022/03/31 01:19:29;;;;;;;17.90;14.75;;;;;;;;;;4990507;28;20332;-76
2022/03/31 01:21:58;;;;;;;21.05;15.25;;;;;;;;;;4991920;28;20208;-77
2022/03/31 01:24:26;;;;;;;22.20;15.57;;;;;;;;;;4991442;28;20255;-77
2022/03/31 01:26:53;;;;;;;24.13;16.92;;;;;;;;;;4989139;28;20197;-77
2022/03/31 01:29:21;;;;;;;24.60;17.52;;;;;;;;;;4989588;28;20231;-76
2022/03/31 01:31:49;;;;;;;23.85;18.08;;;;;;;;;;4991046;28;20295;-76
2022/03/31 01:34:16;;;;;;;27.70;18.20;;;;;;;;;;4990351;28;20263;-77
2022/03/31 01:36:43;;;;;;;24.95;17.75;;;;;;;;;;4991294;28;20207;-76
2022/03/31 01:39:10;;;;;;;25.13;17.92;;;;;;;;;;4991526;28;20223;-75
2022/03/31 01:41:39;;;;;;;24.55;17.92;;;;;;;;;;4990918;28;20677;-77
2022/03/31 01:44:06;;;;;;;23.20;16.88;;;;;;;;;;4988577;28;20688;-77
2022/03/31 01:46:33;;;;;;;22.17;17.80;;;;;;;;;;4989582;28;20201;-76
2022/03/31 01:49:00;;;;;;;21.85;16.52;;;;;;;;;;4991241;28;20221;-77
2022/03/31 01:51:28;;;;;;;21.30;17.35;;;;;;;;;;4991113;28;20205;-76
2022/03/31 01:53:55;;;;;;;25.08;16.80;;;;;;;;;;4991343;28;20564;-76
2022/03/31 01:56:22;;;;;;;24.58;18.38;;;;;;;;;;4991939;28;20197;-76
2022/03/31 01:58:50;;;;;;;33.10;19.13;;;;;;;;;;4991896;28;20224;-78
2022/03/31 02:01:17;;;;;;;23.95;18.70;;;;;;;;;;4993219;28;20255;-78
2022/03/31 02:03:45;;;;;;;26.05;18.67;;;;;;;;;;4993114;28;20251;-77
2022/03/31 02:06:12;;;;;;;26.20;18.30;;;;;;;;;;4988546;28;20201;-78
2022/03/31 02:08:39;;;;;;;25.40;19.10;;;;;;;;;;4989600;28;20212;-77
2022/03/31 02:11:07;;;;;;;24.80;18.13;;;;;;;;;;4990509;28;20213;-78
2022/03/31 02:13:35;;;;;;;26.52;18.95;;;;;;;;;;4990621;28;20654;-77
2022/03/31 02:16:04;;;;;;;27.15;18.45;;;;;;;;;;4991329;28;20224;-76
2022/03/31 02:18:31;;;;;;;24.17;18.00;;;;;;;;;;4991176;28;20240;-75
2022/03/31 02:20:58;;;;;;;30.55;20.05;;;;;;;;;;4983015;28;20201;-79
2022/03/31 02:23:25;;;;;;;30.30;20.23;;;;;;;;;;4973574;28;20209;-77
2022/03/31 02:25:52;;;;;;;29.95;19.45;;;;;;;;;;4973318;28;20197;-75
2022/03/31 02:28:19;;;;;;;31.40;20.38;;;;;;;;;;4985665;28;20215;-77
2022/03/31 02:30:47;;;;;;;27.15;19.10;;;;;;;;;;4989692;28;20213;-76
2022/03/31 02:33:15;;;;;;;32.05;21.20;;;;;;;;;;4993902;28;20216;-76
2022/03/31 02:35:42;;;;;;;27.95;19.38;;;;;;;;;;4993277;28;20204;-75
2022/03/31 02:38:09;;;;;;;32.83;20.50;;;;;;;;;;4992211;28;20228;-76
2022/03/31 02:40:37;;;;;;;32.10;20.23;;;;;;;;;;4995350;28;20209;-77
2022/03/31 02:43:04;;;;;;;34.58;21.30;;;;;;;;;;4989995;28;20204;-79
2022/03/31 02:45:31;;;;;;;32.20;21.60;;;;;;;;;;4977190;28;20201;-76
2022/03/31 02:47:58;;;;;;;30.80;20.80;;;;;;;;;;4977015;28;20229;-80
2022/03/31 02:50:27;;;;;;;34.13;22.17;;;;;;;;;;4986634;28;20654;-77
2022/03/31 02:55:35;;;;;;;39.90;22.02;;;;;;;;;;4993007;28;20204;-77
2022/03/31 02:58:04;;;;;;;33.25;22.50;;;;;;;;;;4994403;28;20221;-79
2022/03/31 03:00:32;;;;;;;36.67;22.40;;;;;;;;;;4993391;28;20197;-78
2022/03/31 03:02:59;;;;;;;39.53;24.05;;;;;;;;;;4994960;28;20220;-78
2022/03/31 03:05:28;;;;;;;37.35;23.65;;;;;;;;;;4994463;28;20203;-79
2022/03/31 03:07:55;;;;;;;37.22;25.02;;;;;;;;;;4996162;28;20712;-81
2022/03/31 03:10:22;;;;;;;40.10;24.30;;;;;;;;;;4996195;28;20225;-77
2022/03/31 03:12:50;;;;;;;35.80;23.77;;;;;;;;;;4993621;28;20204;-76
2022/03/31 03:15:17;;;;;;;36.97;25.15;;;;;;;;;;4990746;28;20255;-78
2022/03/31 03:17:45;;;;;;;35.13;23.92;;;;;;;;;;4992849;28;20324;-79
2022/03/31 03:20:14;;;;;;;41.67;24.95;;;;;;;;;;4993590;28;20203;-76
2022/03/31 03:22:44;;;;;;;46.67;27.52;;;;;;;;;;4994151;28;20236;-80
2022/03/31 03:25:12;;;;;;;44.45;26.38;;;;;;;;;;4993763;28;20674;-80
2022/03/31 03:27:39;;;;;;;46.22;27.35;;;;;;;;;;4993519;28;20223;-80
2022/03/31 03:30:07;;;;;;;43.42;26.10;;;;;;;;;;4995719;28;20225;-80
2022/03/31 03:32:34;;;;;;;44.40;25.20;;;;;;;;;;4995682;28;20520;-80
2022/03/31 03:35:01;;;;;;;43.20;27.05;;;;;;;;;;4994362;28;20204;-82
2022/03/31 03:37:29;;;;;;;44.28;27.08;;;;;;;;;;4990416;28;20193;-78
2022/03/31 03:39:57;;;;;;;40.42;25.83;;;;;;;;;;4992327;28;20681;-80
2022/03/31 03:42:25;;;;;;;42.83;25.23;;;;;;;;;;4993986;28;20635;-82
2022/03/31 03:44:52;;;;;;;41.30;23.38;;;;;;;;;;4993391;28;20201;-81
2022/03/31 03:47:19;;;;;;;33.38;24.60;;;;;;;;;;4993394;28;20201;-80
2022/03/31 03:49:46;;;;;;;38.67;23.45;;;;;;;;;;4993854;28;20220;-78
2022/03/31 03:52:14;;;;;;;40.20;24.35;;;;;;;;;;4976789;28;20205;-81
2022/03/31 03:54:41;;;;;;;43.22;24.67;;;;;;;;;;4976349;28;20198;-77
2022/03/31 03:57:10;;;;;;;42.90;25.15;;;;;;;;;;4978281;28;20573;-77
2022/03/31 03:59:37;;;;;;;53.95;26.20;;;;;;;;;;4990727;28;20224;-82
2022/03/31 04:02:05;;;;;;;45.85;25.40;;;;;;;;;;4991804;28;20658;-77
2022/03/31 04:04:32;;;;;;;49.72;26.15;;;;;;;;;;4993053;28;20291;-78
2022/03/31 04:06:59;;;;;;;51.42;25.55;;;;;;;;;;4993192;28;20259;-82
2022/03/31 04:09:26;;;;;;;38.60;23.80;;;;;;;;;;4993199;28;20607;-79
2022/03/31 04:11:54;;;;;;;48.83;25.92;;;;;;;;;;4993512;28;20678;-81
2022/03/31 04:14:22;;;;;;;42.20;25.30;;;;;;;;;;4979739;28;20201;-80
2022/03/31 04:16:49;;;;;;;50.05;26.45;;;;;;;;;;4975712;28;20340;-81
2022/03/31 04:19:17;;;;;;;47.50;25.45;;;;;;;;;;4977754;28;20232;-81
2022/03/31 04:21:44;;;;;;;50.17;25.67;;;;;;;;;;4990209;28;20662;-78
2022/03/31 04:24:11;;;;;;;45.78;25.15;;;;;;;;;;4989863;28;20193;-78
2022/03/31 04:26:38;;;;;;;39.33;23.10;;;;;;;;;;4992461;28;20197;-76
2022/03/31 04:29:08;;;;;;;43.00;24.98;;;;;;;;;;4992716;28;20221;-78
2022/03/31 04:31:37;;;;;;;44.97;24.77;;;;;;;;;;4992937;28;20291;-77
2022/03/31 04:34:04;;;;;;;44.78;25.08;;;;;;;;;;4992644;28;20212;-82
2022/03/31 04:36:32;;;;;;;45.33;25.80;;;;;;;;;;4991739;28;20236;-80
2022/03/31 04:38:59;;;;;;;46.85;27.38;;;;;;;;;;4990335;28;20223;-80
2022/03/31 04:41:26;;;;;;;40.67;23.50;;;;;;;;;;4991314;28;20205;-81
2022/03/31 04:43:53;;;;;;;42.72;25.38;;;;;;;;;;4992496;28;20211;-81
2022/03/31 04:46:20;;;;;;;52.35;26.65;;;;;;;;;;4991362;28;20192;-81
2022/03/31 04:48:49;;;;;;;45.58;24.50;;;;;;;;;;4992288;28;20221;-77
2022/03/31 04:51:16;;;;;;;47.20;25.25;;;;;;;;;;4992949;28;20275;-80
2022/03/31 04:53:43;;;;;;;44.15;23.77;;;;;;;;;;4976353;28;20201;-81
2022/03/31 04:56:10;;;;;;;42.00;23.98;;;;;;;;;;4975032;28;20205;-76
2022/03/31 04:58:37;;;;;;;53.90;27.05;;;;;;;;;;4977514;28;20224;-80
2022/03/31 05:01:04;;;;;;;50.05;27.20;;;;;;;;;;4989994;28;20559;-76
2022/03/31 05:03:32;;;;;;;45.90;26.92;;;;;;;;;;4989411;28;20211;-78
2022/03/31 05:06:00;;;;;;;46.58;25.75;;;;;;;;;;4991812;28;20200;-82
2022/03/31 05:08:27;;;;;;;47.38;27.13;;;;;;;;;;4991920;28;20224;-79
2022/03/31 05:10:54;;;;;;;48.42;27.27;;;;;;;;;;4992003;28;20217;-77
2022/03/31 05:13:21;;;;;;;48.58;27.13;;;;;;;;;;4992590;28;20205;-79
2022/03/31 05:15:49;;;;;;;51.50;26.35;;;;;;;;;;4992807;28;20201;-80
2022/03/31 05:18:16;;;;;;;63.72;29.45;;;;;;;;;;4993628;28;20228;-77
2022/03/31 05:20:43;;;;;;;43.63;24.17;;;;;;;;;;4992835;28;20196;-81
2022/03/31 05:23:12;;;;;;;58.28;27.20;;;;;;;;;;4989615;28;20577;-82
2022/03/31 05:25:39;;;;;;;46.05;26.30;;;;;;;;;;4990338;28;20204;-77
2022/03/31 05:28:08;;;;;;;57.40;28.08;;;;;;;;;;4991683;28;20307;-76
2022/03/31 05:30:35;;;;;;;58.53;25.92;;;;;;;;;;4991549;28;20314;-78
2022/03/31 05:33:02;;;;;;;50.85;26.45;;;;;;;;;;4991700;28;20211;-77
2022/03/31 05:35:29;;;;;;;52.22;26.38;;;;;;;;;;4992548;28;20303;-80
2022/03/31 05:37:57;;;;;;;52.50;27.25;;;;;;;;;;4992884;28;20221;-80
2022/03/31 05:40:25;;;;;;;65.78;28.27;;;;;;;;;;4994254;28;20193;-80
2022/03/31 05:42:55;;;;;;;50.78;25.95;;;;;;;;;;4992965;28;20227;-77
2022/03/31 05:45:25;;;;;;;49.13;28.33;;;;;;;;;;4989234;28;20297;-77
2022/03/31 05:47:52;;;;;;;46.15;26.40;;;;;;;;;;4988757;28;21244;-78
2022/03/31 05:50:19;;;;;;;55.38;26.83;;;;;;;;;;4990014;28;20270;-79
2022/03/31 05:52:47;;;;;;;56.72;28.90;;;;;;;;;;4991546;28;20599;-82
2022/03/31 05:55:15;;;;;;;55.13;27.70;;;;;;;;;;4991889;28;20642;-78
2022/03/31 05:57:44;;;;;;;48.63;25.83;;;;;;;;;;4990678;28;20220;-82
2022/03/31 06:00:12;;;;;;;46.70;24.40;;;;;;;;;;4979089;28;20209;-80
2022/03/31 06:02:40;;;;;;;44.25;24.45;;;;;;;;;;4973940;28;20220;-77
2022/03/31 06:05:08;;;;;;;41.67;23.25;;;;;;;;;;4976295;28;20188;-80
2022/03/31 06:07:35;;;;;;;42.88;23.38;;;;;;;;;;4988798;28;20226;-79
2022/03/31 06:10:02;;;;;;;39.92;24.33;;;;;;;;;;4989406;28;20641;-82
2022/03/31 06:12:30;;;;;;;45.05;24.85;;;;;;;;;;4990843;28;20207;-80
2022/03/31 06:14:58;;;;;;;39.33;23.20;;;;;;;;;;4993741;28;20207;-78
2022/03/31 06:17:25;;;;;;;46.17;26.00;;;;;;;;;;4995394;28;20204;-76
2022/03/31 06:19:53;;;;;;;42.58;22.60;;;;;;;;;;4995912;28;20555;-80
2022/03/31 06:22:20;;;;;;;45.38;24.77;;;;;;;;;;4983329;28;20197;-76
2022/03/31 06:24:47;;;;;;;43.95;24.73;;;;;;;;;;4977552;28;20635;-78
2022/03/31 06:27:14;;;;;;;47.15;25.17;;;;;;;;;;4978550;28;20205;-76
2022/03/31 06:29:45;;;;;;;52.33;26.95;;;;;;;;;;4992781;28;20577;-79
2022/03/31 06:32:16;;;;;;;56.58;27.73;;;;;;;;;;4992104;28;20279;-80
2022/03/31 06:34:44;;;;;;;41.95;24.92;;;;;;;;;;4994801;28;20208;-86
2022/03/31 06:37:11;;;;;;;40.70;25.10;;;;;;;;;;4994627;28;20576;-83
2022/03/31 06:39:38;;;;;;;45.83;25.35;;;;;;;;;;4995193;28;20221;-82
2022/03/31 06:42:06;;;;;;;43.47;22.60;;;;;;;;;;4995967;28;20223;-81
2022/03/31 06:44:33;;;;;;;49.65;24.52;;;;;;;;;;4982576;28;20205;-82
2022/03/31 06:47:01;;;;;;;46.28;25.50;;;;;;;;;;4982680;28;20204;-78
2022/03/31 06:49:29;;;;;;;50.58;25.40;;;;;;;;;;4992201;28;20212;-80
2022/03/31 06:51:56;;;;;;;42.45;24.80;;;;;;;;;;4989602;28;20201;-78
2022/03/31 06:54:24;;;;;;;37.22;22.90;;;;;;;;;;4976502;28;20620;-78
2022/03/31 06:56:51;;;;;;;48.40;24.00;;;;;;;;;;4975967;28;20202;-76
2022/03/31 06:59:20;;;;;;;37.72;22.98;;;;;;;;;;4976778;28;20311;-76
2022/03/31 07:01:48;;;;;;;43.40;24.67;;;;;;;;;;4975990;28;20201;-78
2022/03/31 07:04:16;;;;;;;51.22;24.65;;;;;;;;;;4977620;28;20225;-79
2022/03/31 07:06:45;;;;;;;39.03;23.23;;;;;;;;;;4977858;28;20209;-80
2022/03/31 07:09:12;;;;;;;45.13;24.58;;;;;;;;;;4983852;28;20216;-78
2022/03/31 07:11:39;;;;;;;48.47;27.08;;;;;;;;;;4993143;28;20216;-79
2022/03/31 07:14:06;;;;;;;47.75;25.25;;;;;;;;;;4994124;28;20563;-78
2022/03/31 07:16:33;;;;;;;45.60;24.98;;;;;;;;;;4994183;28;20566;-77
2022/03/31 07:19:03;;;;;;;54.03;24.38;;;;;;;;;;4994741;28;20587;-78
2022/03/31 07:21:30;;;;;;;50.08;26.02;;;;;;;;;;4994562;28;20201;-81
2022/03/31 07:24:02;;;;;;;43.83;23.92;;;;;;;;;;4995666;28;20634;-78
2022/03/31 07:26:29;;;;;;;46.45;24.92;;;;;;;;;;4978179;28;20205;-81
2022/03/31 07:28:57;;;;;;;45.90;25.00;;;;;;;;;;4978835;28;20585;-79
2022/03/31 07:31:25;;;;;;;44.92;24.52;;;;;;;;;;4984159;28;20213;-80
2022/03/31 07:33:52;;;;;;;44.85;25.65;;;;;;;;;;4993880;28;20216;-82
2022/03/31 07:36:19;;;;;;;44.53;23.30;;;;;;;;;;4994612;28;20231;-79
2022/03/31 07:38:47;;;;;;;54.30;24.88;;;;;;;;;;4996346;28;20220;-80
2022/03/31 07:41:16;;;;;;;42.63;24.00;;;;;;;;;;4986104;28;20201;-80
2022/03/31 07:43:43;;;;;;;46.70;25.45;;;;;;;;;;4981281;28;20564;-80
2022/03/31 07:46:11;;;;;;;42.47;24.33;;;;;;;;;;4993919;28;20200;-75
2022/03/31 07:48:38;;;;;;;37.13;21.27;;;;;;;;;;4993393;28;20220;-78
2022/03/31 07:51:06;;;;;;;43.60;24.00;;;;;;;;;;4995525;28;20225;-79
2022/03/31 07:53:33;;;;;;;44.70;26.05;;;;;;;;;;4993812;28;20671;-79
2022/03/31 07:56:01;;;;;;;45.55;23.70;;;;;;;;;;4989838;28;20239;-79
2022/03/31 07:58:29;;;;;;;42.55;23.90;;;;;;;;;;4991042;28;20239;-79
2022/03/31 08:00:57;;;;;;;40.90;23.90;;;;;;;;;;4993765;28;20524;-78
2022/03/31 08:03:24;;;;;;;48.63;22.98;;;;;;;;;;4975838;28;20224;-80
2022/03/31 08:05:52;;;;;;;46.13;23.88;;;;;;;;;;4974130;28;20201;-84
2022/03/31 08:08:19;;;;;;;43.03;23.90;;;;;;;;;;4972931;28;20319;-78
2022/03/31 08:10:46;;;;;;;43.08;22.75;;;;;;;;;;4977239;28;20706;-77
2022/03/31 08:13:14;;;;;;;44.15;23.83;;;;;;;;;;4981699;28;20650;-77
2022/03/31 08:15:42;;;;;;;38.28;22.70;;;;;;;;;;4994400;28;20303;-81
2022/03/31 08:18:10;;;;;;;40.78;23.55;;;;;;;;;;4990367;28;20247;-80
2022/03/31 08:20:37;;;;;;;47.20;22.98;;;;;;;;;;4990222;28;20217;-76
2022/03/31 08:23:04;;;;;;;45.40;24.00;;;;;;;;;;4973352;28;20209;-80
2022/03/31 08:25:32;;;;;;;39.13;23.02;;;;;;;;;;4973489;28;20212;-80
2022/03/31 08:27:59;;;;;;;41.75;21.48;;;;;;;;;;4977747;28;20228;-78
2022/03/31 08:30:28;;;;;;;35.95;21.60;;;;;;;;;;4992802;28;20575;-76
2022/03/31 08:32:56;;;;;;;39.72;23.55;;;;;;;;;;4981114;28;20659;-82
2022/03/31 08:35:27;;;;;;;35.45;20.30;;;;;;;;;;4975087;28;20208;-80
2022/03/31 08:37:54;;;;;;;37.25;22.45;;;;;;;;;;4973575;28;20217;-76
2022/03/31 08:40:22;;;;;;;42.40;25.92;;;;;;;;;;4988404;28;20200;-79
2022/03/31 08:42:49;;;;;;;33.53;20.65;;;;;;;;;;4988672;28;20769;-78
2022/03/31 08:45:19;;;;;;;38.72;22.10;;;;;;;;;;4983108;28;20296;-77
2022/03/31 08:47:47;;;;;;;36.90;20.65;;;;;;;;;;4974551;28;20223;-78
2022/03/31 08:50:16;;;;;;;43.42;22.42;;;;;;;;;;4972447;28;20245;-78
2022/03/31 08:52:44;;;;;;;40.88;21.35;;;;;;;;;;4972905;28;20204;-80
2022/03/31 08:55:12;;;;;;;40.53;23.52;;;;;;;;;;4973135;28;20582;-77
2022/03/31 08:57:40;;;;;;;39.95;21.58;;;;;;;;;;4989189;28;20216;-80
2022/03/31 09:00:08;;;;;;;38.33;22.50;;;;;;;;;;4990486;28;20200;-78
2022/03/31 09:02:35;;;;;;;37.90;21.75;;;;;;;;;;4970849;28;20201;-78
2022/03/31 09:05:04;;;;;;;35.95;21.10;;;;;;;;;;4971162;28;20198;-77
2022/03/31 09:07:32;;;;;;;36.83;21.05;;;;;;;;;;4972401;28;20552;-78
2022/03/31 09:10:00;;;;;;;34.20;20.08;;;;;;;;;;4972434;28;20299;-77
2022/03/31 09:12:37;;;;;;;35.75;20.10;;;;;;;;;;4972210;28;20287;-80
2022/03/31 09:15:09;;;;;;;31.60;19.50;;;;;;;;;;4983829;28;20576;-79
2022/03/31 09:17:37;;;;;;;37.65;20.92;;;;;;;;;;4987355;28;20621;-81
2022/03/31 09:20:04;;;;;;;35.05;22.15;;;;;;;;;;4977236;28;20252;-80
2022/03/31 09:22:44;;;;;;;40.97;22.00;;;;;;;;;;4972072;28;20292;-78
2022/03/31 09:25:11;;;;;;;41.97;22.58;;;;;;;;;;4971375;28;20201;-77
2022/03/31 09:27:39;;;;;;;42.70;23.50;;;;;;;;;;4972633;28;20218;-79
2022/03/31 09:30:08;;;;;;;38.30;23.05;;;;;;;;;;4972340;28;20663;-78
2022/03/31 09:32:35;;;;;;;37.97;21.23;;;;;;;;;;4974266;28;20216;-79
2022/03/31 09:35:06;;;;;;;43.63;23.50;;;;;;;;;;4989100;28;20196;-78
2022/03/31 09:37:35;;;;;;;37.55;22.50;;;;;;;;;;4989569;28;20205;-79
2022/03/31 09:40:02;;;;;;;46.05;21.73;;;;;;;;;;4988321;28;20200;-79
2022/03/31 09:42:29;;;;;;;39.05;20.15;;;;;;;;;;4990348;28;20205;-78
2022/03/31 09:44:57;;;;;;;41.65;23.05;;;;;;;;;;4974916;28;20584;-81
2022/03/31 09:47:26;;;;;;;38.50;22.40;;;;;;;;;;4970493;28;20208;-79
2022/03/31 09:49:54;;;;;;;36.85;22.13;;;;;;;;;;4990183;28;20674;-80
2022/03/31 09:52:22;;;;;;;32.97;20.83;;;;;;;;;;4989401;28;20668;-77
2022/03/31 09:54:51;;;;;;;36.20;22.17;;;;;;;;;;4992991;28;20200;-78
2022/03/31 09:57:21;;;;;;;36.05;22.00;;;;;;;;;;4992990;28;20203;-78
2022/03/31 09:59:52;;;;;;;38.42;22.60;;;;;;;;;;4991476;28;20203;-79
2022/03/31 10:02:21;;;;;;;34.47;21.20;;;;;;;;;;4987091;28;20324;-78
2022/03/31 10:04:48;;;;;;;38.05;24.13;;;;;;;;;;4976497;28;20229;-78
2022/03/31 10:07:17;;;;;;;33.08;20.00;;;;;;;;;;4970333;28;20205;-78
2022/03/31 10:09:44;;;;;;;33.38;20.77;;;;;;;;;;4971115;28;20201;-77
2022/03/31 10:12:18;;;;;;;35.08;22.40;;;;;;;;;;4971441;28;20260;-77
2022/03/31 10:14:48;;;;;;;42.05;21.55;;;;;;;;;;4971397;28;20686;-78
2022/03/31 10:17:16;;;;;;;41.92;23.90;;;;;;;;;;4973824;28;20197;-77
2022/03/31 10:19:44;;;;;;;37.40;21.35;;;;;;;;;;4988423;28;20216;-77
2022/03/31 10:24:41;;;;;;;40.83;23.00;;;;;;;;;;4989217;28;20666;-77
2022/03/31 10:24:58;;;;;;;39.95;21.90;;;;;;;;;;4976928;28;20197;-78
2022/03/31 10:27:28;;;;;;;45.88;23.73;;;;;;;;;;4990629;28;20207;-78
2022/03/31 10:29:56;;;;;;;39.15;23.42;;;;;;;;;;4991326;28;20205;-78
2022/03/31 10:32:24;;;;;;;38.10;22.13;;;;;;;;;;4991477;28;20227;-78
2022/03/31 10:34:53;;;;;;;33.90;21.77;;;;;;;;;;4991141;28;20292;-78
2022/03/31 10:37:32;;;;;;;39.28;22.25;;;;;;;;;;4993422;28;20271;-78
2022/03/31 10:40:00;;;;;;;35.85;21.45;;;;;;;;;;4991908;28;20677;-80
2022/03/31 10:42:28;;;;;;;37.47;22.13;;;;;;;;;;4988996;28;20193;-82
2022/03/31 10:45:04;;;;;;;39.10;22.10;;;;;;;;;;4988731;28;20444;-77
2022/03/31 10:49:57;;;;;;;38.40;23.33;;;;;;;;;;4989840;28;20522;-77
2022/03/31 10:52:24;;;;;;;39.60;21.73;;;;;;;;;;4990434;28;20487;-77
2022/03/31 10:54:52;;;;;;;36.42;20.95;;;;;;;;;;4990281;28;20201;-77
2022/03/31 10:57:20;;;;;;;34.55;21.83;;;;;;;;;;4981101;28;20204;-77
2022/03/31 10:59:50;;;;;;;35.80;21.42;;;;;;;;;;4987798;28;20267;-77
2022/03/31 11:02:18;;;;;;;40.28;22.60;;;;;;;;;;4991729;28;20231;-77
2022/03/31 11:04:47;;;;;;;36.17;21.73;;;;;;;;;;4992804;28;20731;-78
2022/03/31 11:07:15;;;;;;;40.63;22.70;;;;;;;;;;4993995;28;20209;-77
2022/03/31 11:09:43;;;;;;;42.47;21.98;;;;;;;;;;4994064;28;20206;-77
2022/03/31 11:12:21;;;;;;;40.85;22.23;;;;;;;;;;4993600;28;20220;-78
2022/03/31 11:14:54;;;;;;;40.28;23.27;;;;;;;;;;4995503;28;20207;-77
2022/03/31 11:17:22;;;;;;;41.22;21.83;;;;;;;;;;4995884;28;20670;-78
2022/03/31 11:19:50;;;;;;;42.25;25.00;;;;;;;;;;4994378;28;20197;-77
2022/03/31 11:22:20;;;;;;;41.97;24.23;;;;;;;;;;4991525;28;20732;-77
2022/03/31 11:24:47;;;;;;;52.60;25.63;;;;;;;;;;4992713;28;20203;-76
2022/03/31 11:27:14;;;;;;;46.65;24.40;;;;;;;;;;4992532;28;20201;-77
2022/03/31 11:29:42;;;;;;;37.60;22.83;;;;;;;;;;4993738;28;20211;-77
2022/03/31 11:32:10;;;;;;;42.25;22.95;;;;;;;;;;4993968;28;20220;-78
2022/03/31 11:34:37;;;;;;;42.60;23.92;;;;;;;;;;4994028;28;20577;-78
2022/03/31 11:37:04;;;;;;;40.33;22.58;;;;;;;;;;4995001;28;20228;-77
2022/03/31 11:39:34;;;;;;;37.22;22.73;;;;;;;;;;4995559;28;20220;-77
2022/03/31 11:42:02;;;;;;;35.40;20.60;;;;;;;;;;4994237;28;20192;-78
2022/03/31 11:44:32;;;;;;;35.40;23.15;;;;;;;;;;4991399;28;20205;-77
2022/03/31 11:47:00;;;;;;;37.55;21.45;;;;;;;;;;4992095;28;20207;-77
2022/03/31 11:49:29;;;;;;;40.22;21.38;;;;;;;;;;4993576;28;20221;-76
2022/03/31 11:51:57;;;;;;;39.03;21.27;;;;;;;;;;4993275;28;20682;-78
2022/03/31 11:54:25;;;;;;;42.78;23.48;;;;;;;;;;4994004;28;20208;-79
2022/03/31 11:57:03;;;;;;;38.03;21.52;;;;;;;;;;4993918;28;20211;-79
2022/03/31 11:59:30;;;;;;;35.90;23.38;;;;;;;;;;4994607;28;20228;-78
2022/03/31 12:01:57;;;;;;;37.47;21.25;;;;;;;;;;4995640;28;20208;-78
2022/03/31 12:04:26;;;;;;;31.33;21.20;;;;;;;;;;4993484;28;20681;-79
2022/03/31 12:06:56;;;;;;;35.15;20.63;;;;;;;;;;4989993;28;20623;-79
2022/03/31 12:09:26;;;;;;;35.17;20.00;;;;;;;;;;4990442;28;20609;-77
2022/03/31 12:11:53;;;;;;;35.95;21.95;;;;;;;;;;4990659;28;20698;-78
2022/03/31 12:14:20;;;;;;;37.65;21.23;;;;;;;;;;4993091;28;20196;-77
2022/03/31 12:16:49;;;;;;;34.40;20.85;;;;;;;;;;4993309;28;20201;-77
2022/03/31 12:19:17;;;;;;;29.13;18.75;;;;;;;;;;4993037;28;20228;-77
2022/03/31 12:21:46;;;;;;;27.65;18.40;;;;;;;;;;4976531;28;20202;-77
2022/03/31 12:24:15;;;;;;;25.05;17.55;;;;;;;;;;4974205;28;20204;-77
2022/03/31 12:26:54;;;;;;;29.90;19.63;;;;;;;;;;4980870;28;20220;-77
2022/03/31 12:29:21;;;;;;;31.50;19.05;;;;;;;;;;4990377;28;20212;-77
2022/03/31 12:31:49;;;;;;;31.10;19.42;;;;;;;;;;4990249;28;20217;-77
2022/03/31 12:34:16;;;;;;;33.42;19.52;;;;;;;;;;4992515;28;20205;-76
2022/03/31 12:36:44;;;;;;;29.92;18.45;;;;;;;;;;4992461;28;20204;-77
2022/03/31 12:39:13;;;;;;;35.97;18.65;;;;;;;;;;4992661;28;20252;-77
2022/03/31 12:41:42;;;;;;;29.02;17.88;;;;;;;;;;4992830;28;20193;-77
2022/03/31 12:44:10;;;;;;;33.13;20.20;;;;;;;;;;4974862;28;20256;-77
2022/03/31 12:46:38;;;;;;;31.33;19.40;;;;;;;;;;4973864;28;20201;-77
2022/03/31 12:49:08;;;;;;;26.02;16.58;;;;;;;;;;4979151;28;20220;-76
2022/03/31 12:51:43;;;;;;;31.48;20.92;;;;;;;;;;4989740;28;20312;-77
2022/03/31 12:54:25;;;;;;;33.53;20.33;;;;;;;;;;4991000;28;20271;-77
2022/03/31 12:56:55;;;;;;;28.42;18.52;;;;;;;;;;4991182;28;20216;-77
2022/03/31 12:59:24;;;;;;;31.05;21.08;;;;;;;;;;4992054;28;20227;-77
2022/03/31 13:01:59;;;;;;;26.92;17.90;;;;;;;;;;4992434;28;20240;-77
2022/03/31 13:04:26;;;;;;;28.50;18.13;;;;;;;;;;4992083;28;20211;-77
2022/03/31 13:06:53;;;;;;;30.13;20.80;;;;;;;;;;4994115;28;20563;-77
2022/03/31 13:09:21;;;;;;;33.97;21.85;;;;;;;;;;4994088;28;20233;-78
2022/03/31 13:11:51;;;;;;;36.60;19.60;;;;;;;;;;4991853;28;20220;-77
2022/03/31 13:14:20;;;;;;;37.63;22.27;;;;;;;;;;4989549;28;20223;-78
2022/03/31 13:16:48;;;;;;;31.02;19.48;;;;;;;;;;4990616;28;20205;-77
2022/03/31 13:19:15;;;;;;;32.85;20.00;;;;;;;;;;4990221;28;20259;-77
2022/03/31 13:21:42;;;;;;;33.22;19.20;;;;;;;;;;4991887;28;20192;-77
2022/03/31 13:24:12;;;;;;;33.72;19.63;;;;;;;;;;4991857;28;20207;-76
2022/03/31 13:26:41;;;;;;;25.88;17.60;;;;;;;;;;4991094;28;20204;-80
2022/03/31 13:29:10;;;;;;;33.05;18.85;;;;;;;;;;4972885;28;20229;-79
2022/03/31 13:31:40;;;;;;;28.30;17.20;;;;;;;;;;4973900;28;20667;-80
2022/03/31 13:34:08;;;;;;;33.00;19.08;;;;;;;;;;4989149;28;20192;-79
2022/03/31 13:36:35;;;;;;;29.30;19.13;;;;;;;;;;4989666;28;20196;-79
2022/03/31 13:39:03;;;;;;;39.03;21.50;;;;;;;;;;4991196;28;20223;-81
2022/03/31 13:41:30;;;;;;;31.02;19.88;;;;;;;;;;4990908;28;20192;-81
2022/03/31 13:43:57;;;;;;;29.80;19.95;;;;;;;;;;4991585;28;20205;-81
2022/03/31 13:46:25;;;;;;;28.08;18.88;;;;;;;;;;4992106;28;20196;-80
2022/03/31 13:48:53;;;;;;;30.58;19.50;;;;;;;;;;4982822;28;20229;-80
2022/03/31 13:51:20;;;;;;;32.72;18.88;;;;;;;;;;4986210;28;20200;-79
2022/03/31 13:53:53;;;;;;;29.27;19.52;;;;;;;;;;4993004;28;20220;-79
2022/03/31 13:56:21;;;;;;;22.63;17.10;;;;;;;;;;4989782;28;20295;-79
2022/03/31 14:01:30;;;;;;;22.23;16.58;;;;;;;;;;4990677;28;20204;-78
2022/03/31 14:03:58;;;;;;;24.00;15.35;;;;;;;;;;4991272;28;20197;-82
2022/03/31 14:06:28;;;;;;;23.02;16.33;;;;;;;;;;4990186;28;20201;-85
2022/03/31 14:08:55;;;;;;;23.35;15.63;;;;;;;;;;4989471;28;20221;-81
2022/03/31 14:11:24;;;;;;;22.23;14.70;;;;;;;;;;4980852;28;20204;-82
2022/03/31 14:13:52;;;;;;;21.50;14.85;;;;;;;;;;4982483;28;20307;-79
2022/03/31 14:16:20;;;;;;;18.23;13.55;;;;;;;;;;4983295;28;20247;-80
2022/03/31 14:18:47;;;;;;;18.65;14.85;;;;;;;;;;4986215;28;20585;-81
2022/03/31 14:21:16;;;;;;;22.63;15.80;;;;;;;;;;4987682;28;20207;-80
2022/03/31 14:23:44;;;;;;;20.52;14.38;;;;;;;;;;4982242;28;20193;-80
2022/03/31 14:26:12;;;;;;;18.75;14.10;;;;;;;;;;4982639;28;20654;-87
2022/03/31 14:28:40;;;;;;;18.88;14.02;;;;;;;;;;4989318;28;20303;-88